Time;durP1;ratioP1;P1;durP2;ratioP2;P2;SDS_P1;SDS_P2;PMS_P1;PMS_P2;Temp;Humidity;BMP_temperature;BMP_pressure;BME280_temperature;BME280_humidity;BME280_pressure;Samples;Min_cycle;Max_cycle;Signal;HPM_P1;HPM_P2
2023/06/11 00:01:26;;;;;;;11.70;10.60;;;;;;;15.78;100.00;98972.73;105948;1251;60425;-71
2023/06/11 00:03:53;;;;;;;12.20;11.20;;;;;;;15.74;100.00;98970.16;105659;1251;65866;-71
2023/06/11 00:06:21;;;;;;;12.10;11.10;;;;;;;15.72;100.00;98971.27;105733;1251;60821;-72
2023/06/11 00:08:49;;;;;;;12.00;11.00;;;;;;;15.69;100.00;98972.29;105759;1251;64278;-73
2023/06/11 00:11:16;;;;;;;12.20;11.30;;;;;;;15.66;100.00;98969.09;105949;1251;60398;-73
2023/06/11 00:13:42;;;;;;;12.40;11.40;;;;;;;15.64;100.00;98969.09;106193;1251;60516;-72
2023/06/11 00:16:11;;;;;;;12.20;11.00;;;;;;;15.62;100.00;98967.85;105781;1251;60549;-73
2023/06/11 00:18:40;;;;;;;11.10;10.20;;;;;;;15.59;100.00;98971.63;105688;1251;60658;-73
2023/06/11 00:21:08;;;;;;;12.20;11.10;;;;;;;15.57;100.00;98972.92;105570;1252;62498;-71
2023/06/11 00:23:36;;;;;;;10.90;10.00;;;;;;;15.54;100.00;98969.21;105716;1251;60424;-73
2023/06/11 00:26:05;;;;;;;11.80;10.90;;;;;;;15.52;100.00;98969.95;105950;1252;60348;-74
2023/06/11 00:28:32;;;;;;;10.40;9.60;;;;;;;15.51;100.00;98974.89;105662;1251;65966;-74
2023/06/11 00:31:00;;;;;;;10.10;9.40;;;;;;;15.50;100.00;98974.98;105635;1257;60300;-74
2023/06/11 00:33:27;;;;;;;10.70;9.80;;;;;;;15.49;100.00;98973.48;105921;1257;65800;-73
2023/06/11 00:35:53;;;;;;;11.70;10.80;;;;;;;15.47;100.00;98975.62;105900;1251;60428;-72
2023/06/11 00:38:20;;;;;;;11.40;10.40;;;;;;;15.45;100.00;98973.83;105739;1251;60548;-73
2023/06/11 00:40:47;;;;;;;11.80;10.60;;;;;;;15.44;100.00;98974.83;105687;1255;65553;-71
2023/06/11 00:43:17;;;;;;;11.80;10.80;;;;;;;15.43;100.00;98972.18;105645;1255;60726;-71
2023/06/11 00:45:47;;;;;;;11.80;10.60;;;;;;;15.42;100.00;98971.55;105883;1251;64480;-72
2023/06/11 00:48:13;;;;;;;11.90;11.00;;;;;;;15.42;100.00;98968.33;105662;1255;60747;-72
2023/06/11 00:50:45;;;;;;;10.50;9.70;;;;;;;15.42;100.00;98964.97;105617;1256;60530;-70
2023/06/11 00:53:14;;;;;;;12.90;11.80;;;;;;;15.40;100.00;98967.42;105935;1254;66947;-73
2023/06/11 00:55:41;;;;;;;12.80;11.70;;;;;;;15.38;100.00;98971.56;105706;1257;60638;-72
2023/06/11 00:58:13;;;;;;;12.90;11.70;;;;;;;15.34;100.00;98967.20;105558;1256;60545;-73
2023/06/11 01:00:49;;;;;;;13.50;12.30;;;;;;;15.31;100.00;98973.17;106038;1257;60443;-71
2023/06/11 01:03:21;;;;;;;15.00;13.70;;;;;;;15.30;100.00;98973.84;105957;1251;60355;-72
2023/06/11 01:06:05;;;;;;;14.70;13.50;;;;;;;15.29;100.00;98974.64;105563;1251;65031;-71
2023/06/11 01:08:40;;;;;;;13.90;12.60;;;;;;;15.28;100.00;98974.94;105678;1257;60805;-72
2023/06/11 01:11:21;;;;;;;15.00;13.70;;;;;;;15.26;100.00;98973.96;105683;1256;63603;-74
2023/06/11 01:13:48;;;;;;;16.40;14.90;;;;;;;15.25;100.00;98973.41;105994;1253;60507;-72
2023/06/11 01:16:32;;;;;;;15.60;14.20;;;;;;;15.22;100.00;98974.34;105912;1252;60430;-72
2023/06/11 01:19:33;;;;;;;14.50;13.30;;;;;;;15.20;100.00;98976.16;105935;1254;65832;-73
2023/06/11 01:22:21;;;;;;;16.30;15.00;;;;;;;15.20;100.00;98982.23;105846;1251;60437;-72
2023/06/11 01:25:22;;;;;;;15.20;13.90;;;;;;;15.22;100.00;98981.55;105876;1251;63702;-71
2023/06/11 01:38:10;;;;;;;28.30;25.70;;;;;;;15.33;100.00;98979.34;102647;1289;600859;-72
2023/06/11 01:40:37;;;;;;;23.00;20.80;;;;;;;15.30;100.00;98979.79;104775;1269;59349;-72
2023/06/11 01:43:03;;;;;;;16.30;14.90;;;;;;;15.27;100.00;98978.02;104772;1263;59363;-72
2023/06/11 01:45:32;;;;;;;18.10;16.60;;;;;;;15.24;100.00;98976.50;104644;1272;63695;-71
2023/06/11 01:48:00;;;;;;;16.40;15.00;;;;;;;15.23;100.00;98975.75;104945;1267;60112;-72
2023/06/11 01:50:27;;;;;;;14.80;13.40;;;;;;;15.21;100.00;98974.27;104792;1263;64873;-72
2023/06/11 01:52:53;;;;;;;13.90;12.80;;;;;;;15.18;100.00;98975.23;104798;1263;134405;-72
2023/06/11 01:55:20;;;;;;;14.50;13.20;;;;;;;15.15;100.00;98974.21;104796;1260;59509;-74
2023/06/11 01:57:46;;;;;;;14.60;13.40;;;;;;;15.11;100.00;98977.41;105054;1261;63871;-73
2023/06/11 02:00:32;;;;;;;14.50;13.30;;;;;;;15.07;100.00;98979.08;105761;1257;59842;-73
2023/06/11 02:03:01;;;;;;;13.50;12.30;;;;;;;15.02;100.00;98979.52;105771;1257;64467;-71
2023/06/11 02:05:28;;;;;;;;;;;;;;;14.98;100.00;98983.05;105745;1257;59646;-72
2023/06/11 02:07:55;;;;;;;14.70;13.40;;;;;;;14.92;100.00;98980.28;105569;1257;59532;-73
2023/06/11 02:10:21;;;;;;;13.90;12.80;;;;;;;14.88;100.00;98978.84;105832;1257;59707;-73
2023/06/11 02:12:48;;;;;;;14.60;13.30;;;;;;;14.85;100.00;98984.30;105790;1257;59650;-71
2023/06/11 02:15:14;;;;;;;13.60;12.50;;;;;;;14.83;100.00;98986.13;105563;1257;73155;-72
2023/06/11 02:17:41;;;;;;;14.50;13.40;;;;;;;14.80;100.00;98988.33;105646;1257;59688;-75
2023/06/11 02:20:08;;;;;;;15.00;13.80;;;;;;;14.78;100.00;98991.22;105812;1258;59538;-74
2023/06/11 02:22:35;;;;;;;15.70;14.30;;;;;;;14.76;100.00;98992.56;105637;1257;73519;-72
2023/06/11 02:25:01;;;;;;;15.00;13.80;;;;;;;14.77;100.00;98996.83;105784;1257;60428;-73
2023/06/11 02:27:29;;;;;;;15.90;14.50;;;;;;;14.77;100.00;98991.11;105513;1262;63999;-72
2023/06/11 02:29:56;;;;;;;15.10;13.60;;;;;;;14.77;100.00;98993.41;105665;1257;59621;-73
2023/06/11 02:32:23;;;;;;;15.30;14.00;;;;;;;14.78;100.00;98997.63;105064;1254;59842;-74
2023/06/11 02:34:49;;;;;;;15.20;13.90;;;;;;;14.78;100.00;98997.58;105653;1257;59704;-70
2023/06/11 02:37:16;;;;;;;15.40;14.20;;;;;;;14.80;100.00;98997.28;105370;1257;60811;-71
2023/06/11 02:39:43;;;;;;;15.70;14.40;;;;;;;14.82;100.00;99000.51;105369;1254;64580;-71
2023/06/11 02:42:09;;;;;;;15.30;14.00;;;;;;;14.83;100.00;98996.60;105405;1257;59640;-73
2023/06/11 02:44:36;;;;;;;15.80;14.30;;;;;;;14.86;100.00;98996.25;105531;1256;59686;-72
2023/06/11 02:47:03;;;;;;;14.40;13.20;;;;;;;14.88;100.00;98997.30;105293;1254;59503;-71
2023/06/11 02:49:29;;;;;;;15.10;13.70;;;;;;;14.92;100.00;99000.55;105319;1253;60064;-72
2023/06/11 02:51:56;;;;;;;15.00;13.70;;;;;;;14.96;100.00;98999.67;105323;1256;64418;-73
2023/06/11 02:54:23;;;;;;;14.50;13.40;;;;;;;15.00;100.00;98999.89;105180;1254;59846;-74
2023/06/11 02:56:49;;;;;;;14.20;13.00;;;;;;;15.04;100.00;98999.69;105730;1257;59572;-71
2023/06/11 02:59:16;;;;;;;15.10;13.90;;;;;;;15.09;100.00;99000.34;105683;1257;64686;-72
2023/06/11 03:01:42;;;;;;;15.40;14.10;;;;;;;15.14;100.00;99003.70;105740;1253;60175;-71
2023/06/11 03:04:09;;;;;;;15.00;13.60;;;;;;;15.17;100.00;99000.37;105463;1258;62911;-71
2023/06/11 03:06:36;;;;;;;14.50;13.30;;;;;;;15.20;100.00;99001.23;105544;1253;59538;-72
2023/06/11 03:09:02;;;;;;;15.10;13.90;;;;;;;15.21;100.00;99000.95;105567;1253;59504;-72
2023/06/11 03:11:29;;;;;;;16.00;14.70;;;;;;;15.22;100.00;99006.02;105716;1257;65972;-74
2023/06/11 03:13:56;;;;;;;17.10;15.50;;;;;;;15.27;100.00;99005.27;105662;1253;60897;-71
2023/06/11 03:16:22;;;;;;;14.70;13.50;;;;;;;15.35;100.00;99006.55;105673;1253;64681;-73
2023/06/11 03:18:49;;;;;;;16.40;14.90;;;;;;;15.41;100.00;99013.87;105451;1254;59695;-73
2023/06/11 03:21:15;;;;;;;14.70;13.40;;;;;;;15.47;100.00;99013.95;105436;1254;59618;-71
2023/06/11 03:23:42;;;;;;;14.60;13.20;;;;;;;15.50;100.00;99012.08;105067;1254;65321;-73
2023/06/11 03:26:08;;;;;;;14.60;13.30;;;;;;;15.51;100.00;99012.15;105737;1257;59670;-73
2023/06/11 03:28:35;;;;;;;15.20;13.90;;;;;;;15.52;100.00;99014.32;105717;1254;64117;-72
2023/06/11 03:31:02;;;;;;;15.50;14.20;;;;;;;15.54;100.00;99018.30;105734;1253;59727;-74
2023/06/11 03:33:28;;;;;;;14.30;13.00;;;;;;;15.55;100.00;99018.78;105349;1254;59617;-72
2023/06/11 03:35:55;;;;;;;15.00;13.70;;;;;;;15.57;100.00;99020.02;105357;1257;59621;-70
2023/06/11 03:38:22;;;;;;;14.40;13.10;;;;;;;15.61;100.00;99022.17;105468;1259;59817;-71
2023/06/11 03:40:49;;;;;;;15.10;13.80;;;;;;;15.66;100.00;99022.67;105350;1257;64850;-72
2023/06/11 03:43:16;;;;;;;14.70;13.40;;;;;;;15.70;100.00;99027.35;105537;1256;59730;-72
2023/06/11 03:45:42;;;;;;;14.00;12.80;;;;;;;15.75;100.00;99034.41;105746;1258;59759;-73
2023/06/11 03:48:09;;;;;;;14.70;13.50;;;;;;;15.81;100.00;99035.36;105735;1253;65105;-70
2023/06/11 03:50:35;;;;;;;13.70;12.70;;;;;;;15.84;100.00;99034.13;105587;1257;61486;-72
2023/06/11 03:53:02;;;;;;;13.30;12.00;;;;;;;15.88;100.00;99036.87;105631;1254;64782;-73
2023/06/11 03:55:29;;;;;;;14.10;12.80;;;;;;;15.91;100.00;99037.64;105264;1256;59680;-69
2023/06/11 03:57:56;;;;;;;13.10;12.00;;;;;;;15.97;100.00;99041.84;105566;1257;59567;-73
2023/06/11 04:00:23;;;;;;;15.30;14.00;;;;;;;16.00;100.00;99035.92;105712;1254;64129;-71
2023/06/11 04:02:49;;;;;;;15.80;14.50;;;;;;;16.05;100.00;99037.54;105580;1254;59888;-72
2023/06/11 04:05:16;;;;;;;15.30;13.90;;;;;;;16.10;100.00;99040.84;105400;1253;64098;-73
2023/06/11 04:07:43;;;;;;;16.50;15.00;;;;;;;16.15;100.00;99041.33;105398;1256;59641;-71
2023/06/11 04:10:10;;;;;;;16.90;15.20;;;;;;;16.19;100.00;99043.60;105411;1253;59612;-72
2023/06/11 04:12:36;;;;;;;15.70;14.40;;;;;;;16.24;100.00;99044.77;105751;1254;65048;-72
2023/06/11 04:15:03;;;;;;;16.10;14.60;;;;;;;16.31;100.00;99047.78;105627;1255;59999;-72
2023/06/11 04:17:30;;;;;;;14.10;12.90;;;;;;;16.37;100.00;99044.46;105557;1254;63840;-70
2023/06/11 04:19:56;;;;;;;12.60;11.60;;;;;;;16.46;100.00;99048.19;105378;1253;59768;-73
2023/06/11 04:22:23;;;;;;;11.20;10.10;;;;;;;16.56;100.00;99052.30;105404;1253;60044;-73
2023/06/11 04:24:49;;;;;;;10.50;9.60;;;;;;;16.65;100.00;99052.69;105651;1257;63818;-72
2023/06/11 04:27:17;;;;;;;10.70;9.70;;;;;;;16.84;100.00;99048.00;105383;1263;59436;-73
2023/06/11 04:29:44;;;;;;;9.50;8.80;;;;;;;17.03;100.00;99043.55;105679;1257;62841;-72
2023/06/11 04:32:11;;;;;;;9.60;8.80;;;;;;;17.11;100.00;99043.45;105727;1256;59616;-72
2023/06/11 04:34:38;;;;;;;9.60;8.90;;;;;;;17.29;100.00;99047.89;105686;1253;59669;-72
2023/06/11 04:37:08;;;;;;;9.10;8.40;;;;;;;17.54;100.00;99045.90;105524;1253;65029;-72
2023/06/11 04:39:35;;;;;;;8.80;8.10;;;;;;;17.82;100.00;99042.91;105375;1257;59671;-70
2023/06/11 04:42:02;;;;;;;8.30;7.60;;;;;;;18.36;100.00;99044.31;105611;1254;65901;-71
2023/06/11 04:44:29;;;;;;;8.20;7.60;;;;;;;19.52;100.00;99041.77;105838;1253;59595;-73
2023/06/11 04:46:57;;;;;;;7.70;7.10;;;;;;;20.64;100.00;99043.20;106061;1250;59673;-72
2023/06/11 04:49:24;;;;;;;7.40;6.80;;;;;;;21.44;100.00;99051.55;106029;1250;63994;-72
2023/06/11 04:51:52;;;;;;;7.00;6.50;;;;;;;22.11;100.00;99050.01;105989;1254;60658;-73
2023/06/11 04:54:21;;;;;;;7.60;6.90;;;;;;;22.54;100.00;99046.45;106147;1250;64026;-73
2023/06/11 04:56:48;;;;;;;8.10;7.30;;;;;;;22.78;100.00;99046.48;106136;1253;59603;-71
2023/06/11 04:59:16;;;;;;;7.90;7.10;;;;;;;23.02;100.00;99049.63;106177;1251;59621;-72
2023/06/11 05:01:50;;;;;;;8.60;7.70;;;;;;;22.38;100.00;99050.43;106062;1250;65230;-72
2023/06/11 05:04:17;;;;;;;7.50;6.70;;;;;;;22.14;100.00;99054.20;106191;1251;59664;-70
2023/06/11 05:06:45;;;;;;;8.70;7.90;;;;;;;21.93;100.00;99051.86;106066;1250;64086;-72
2023/06/11 05:09:13;;;;;;;7.70;6.90;;;;;;;21.80;100.00;99059.91;106406;1250;59605;-71
2023/06/11 05:11:43;;;;;;;7.60;7.00;;;;;;;21.28;100.00;99062.58;105873;1257;59654;-72
2023/06/11 05:14:11;;;;;;;7.20;6.70;;;;;;;20.78;100.00;99066.63;106028;1251;64137;-73
2023/06/11 05:16:39;;;;;;;7.10;6.50;;;;;;;20.34;100.00;99064.58;106263;1250;60159;-72
2023/06/11 05:19:06;;;;;;;7.50;6.80;;;;;;;19.93;100.00;99065.55;106144;1254;63634;-72
2023/06/11 05:21:32;;;;;;;7.00;6.50;;;;;;;19.63;100.00;99067.58;106124;1250;59666;-71
2023/06/11 05:24:06;;;;;;;7.40;6.70;;;;;;;19.43;100.00;99070.29;105960;1250;59736;-72
2023/06/11 05:26:36;;;;;;;7.30;6.70;;;;;;;19.26;100.00;99070.55;106103;1251;64180;-72
2023/06/11 05:29:03;;;;;;;8.50;7.50;;;;;;;19.17;100.00;99071.92;106133;1254;61463;-76
2023/06/11 05:31:31;;;;;;;7.50;6.90;;;;;;;19.04;100.00;99073.91;106174;1251;63366;-72
2023/06/11 05:33:57;;;;;;;8.20;7.40;;;;;;;18.93;100.00;99070.94;106088;1253;59604;-74
2023/06/11 05:36:24;;;;;;;7.70;7.10;;;;;;;18.85;100.00;99078.18;106056;1254;59504;-74
2023/06/11 05:38:51;;;;;;;9.80;8.40;;;;;;;18.80;100.00;99074.52;106063;1250;63034;-72
2023/06/11 05:41:19;;;;;;;8.70;8.00;;;;;;;18.83;100.00;99071.52;106022;1250;60802;-73
2023/06/11 05:43:46;;;;;;;9.60;8.60;;;;;;;19.02;100.00;99075.71;106038;1250;73269;-73
2023/06/11 05:46:13;;;;;;;8.60;7.80;;;;;;;19.15;100.00;99074.98;105919;1250;60614;-74
2023/06/11 05:48:41;;;;;;;10.30;7.90;;;;;;;19.19;100.00;99082.02;106233;1249;60507;-73
2023/06/11 05:51:07;;;;;;;10.00;9.00;;;;;;;19.22;100.00;99082.55;105826;1258;65862;-73
2023/06/11 05:53:34;;;;;;;9.00;8.20;;;;;;;19.20;100.00;99090.67;106107;1254;60538;-76
2023/06/11 05:56:03;;;;;;;10.00;9.00;;;;;;;19.04;100.00;99087.76;106218;1251;64575;-74
2023/06/11 05:58:34;;;;;;;9.80;8.90;;;;;;;18.97;100.00;99094.64;106172;1253;60346;-74
2023/06/11 06:01:02;;;;;;;10.20;9.20;;;;;;;18.97;100.00;99099.45;106152;1253;60460;-74
2023/06/11 06:03:30;;;;;;;9.50;8.50;;;;;;;18.96;100.00;99104.65;106094;1250;66137;-71
2023/06/11 06:05:59;;;;;;;9.60;8.70;;;;;;;18.83;100.00;99103.17;106002;1250;60421;-73
2023/06/11 06:08:26;;;;;;;10.80;9.70;;;;;;;18.74;100.00;99105.36;106387;1254;62496;-73
2023/06/11 06:10:54;;;;;;;11.30;10.30;;;;;;;18.63;100.00;99108.91;106098;1249;60424;-74
2023/06/11 06:13:25;;;;;;;11.90;10.70;;;;;;;18.54;100.00;99109.27;106092;1250;60402;-74
2023/06/11 06:15:55;;;;;;;11.30;10.40;;;;;;;18.50;100.00;99110.77;105925;1250;63730;-74
2023/06/11 06:18:22;;;;;;;10.80;9.90;;;;;;;18.52;100.00;99112.58;106108;1254;60520;-73
2023/06/11 06:20:49;;;;;;;11.10;10.30;;;;;;;18.53;100.00;99113.73;106085;1253;72954;-74
2023/06/11 06:23:16;;;;;;;13.40;12.30;;;;;;;18.54;100.00;99122.80;106020;1251;60546;-74
2023/06/11 06:25:42;;;;;;;12.30;11.20;;;;;;;18.49;100.00;99120.47;105990;1254;60412;-75
2023/06/11 06:28:09;;;;;;;10.40;9.50;;;;;;;18.45;100.00;99117.73;105905;1250;65272;-76
2023/06/11 06:30:38;;;;;;;9.60;8.40;;;;;;;18.42;100.00;99121.60;105813;1258;60473;-73
2023/06/11 06:33:05;;;;;;;10.20;9.30;;;;;;;18.41;100.00;99119.56;106042;1251;64871;-72
2023/06/11 06:35:32;;;;;;;11.50;10.60;;;;;;;18.50;100.00;99125.02;106153;1249;60572;-73
2023/06/11 06:38:02;;;;;;;11.10;10.10;;;;;;;18.65;100.00;99125.87;106167;1253;60460;-72
2023/06/11 06:40:29;;;;;;;;;;;;;;;18.86;100.00;99125.11;106210;1250;64696;-74
2023/06/11 06:42:55;;;;;;;8.90;8.20;;;;;;;19.00;100.00;99126.54;106139;1250;60510;-72
2023/06/11 06:45:22;;;;;;;8.00;7.40;;;;;;;19.24;100.00;99122.52;106137;1254;64871;-74
2023/06/11 06:47:48;;;;;;;8.10;7.40;;;;;;;19.76;100.00;99122.07;106031;1250;60514;-74
2023/06/11 06:50:15;;;;;;;8.00;7.40;;;;;;;20.40;100.00;99121.58;106047;1250;60523;-74
2023/06/11 06:52:41;;;;;;;7.60;7.00;;;;;;;21.20;100.00;99124.20;106097;1250;64841;-74
2023/06/11 06:55:08;;;;;;;7.20;6.60;;;;;;;21.88;100.00;99128.59;106145;1253;60424;-73
2023/06/11 06:57:35;;;;;;;6.80;6.20;;;;;;;22.25;100.00;99134.27;106049;1251;64815;-73
2023/06/11 07:00:05;;;;;;;7.50;6.90;;;;;;;21.84;100.00;99137.52;106052;1251;60423;-73
2023/06/11 07:02:31;;;;;;;;;;;;;;;21.41;100.00;99133.66;106208;1251;60430;-75
2023/06/11 07:04:58;;;;;;;7.70;6.90;;;;;;;21.09;100.00;99130.92;106147;1253;65828;-74
2023/06/11 07:07:25;;;;;;;7.20;6.60;;;;;;;21.15;100.00;99132.90;106168;1251;60432;-73
2023/06/11 07:09:52;;;;;;;7.10;6.40;;;;;;;21.23;100.00;99133.02;106025;1251;72581;-74
2023/06/11 07:12:20;;;;;;;7.00;6.40;;;;;;;21.25;100.00;99128.92;106051;1250;60504;-73
2023/06/11 07:14:47;;;;;;;7.00;6.40;;;;;;;21.42;100.00;99127.59;106140;1250;60406;-75
2023/06/11 07:17:13;;;;;;;7.00;6.20;;;;;;;21.54;100.00;99129.40;106063;1250;64663;-73
2023/06/11 07:19:40;;;;;;;7.10;6.60;;;;;;;21.53;100.00;99132.80;106184;1254;60391;-72
2023/06/11 07:22:06;;;;;;;6.90;6.40;;;;;;;21.61;100.00;99128.19;106221;1253;62901;-74
2023/06/11 07:24:34;;;;;;;7.60;6.90;;;;;;;21.87;100.00;99124.16;106183;1251;60564;-74
2023/06/11 07:27:00;;;;;;;6.90;6.40;;;;;;;21.90;100.00;99129.48;106150;1250;60350;-73
2023/06/11 07:29:27;;;;;;;6.50;6.00;;;;;;;22.11;100.00;99128.98;105768;1250;65097;-74
2023/06/11 07:31:53;;;;;;;7.20;6.30;;;;;;;22.55;100.00;99126.30;106200;1254;61066;-73
2023/06/11 07:34:20;;;;;;;7.30;6.10;;;;;;;22.48;100.00;99132.20;106159;1250;64069;-76
2023/06/11 07:36:47;;;;;;;7.40;5.90;;;;;;;22.24;100.00;99131.52;106156;1250;60483;-74
2023/06/11 07:39:14;;;;;;;6.50;6.00;;;;;;;22.15;100.00;99133.70;106097;1251;60325;-75
2023/06/11 07:41:40;;;;;;;6.80;6.10;;;;;;;22.18;100.00;99131.47;106063;1255;66141;-74
2023/06/11 07:44:07;;;;;;;7.00;6.40;;;;;;;22.20;100.00;99132.25;105824;1257;60560;-73
2023/06/11 07:46:34;;;;;;;6.50;6.00;;;;;;;22.11;100.00;99133.45;106028;1250;63896;-73
2023/06/11 07:49:00;;;;;;;7.00;6.00;;;;;;;21.97;100.00;99137.55;106066;1250;60473;-74
2023/06/11 07:51:27;;;;;;;6.60;6.10;;;;;;;21.89;100.00;99136.51;106071;1251;60297;-72
2023/06/11 07:53:56;;;;;;;6.20;5.70;;;;;;;21.94;100.00;99138.29;106058;1250;64926;-73
2023/06/11 07:56:23;;;;;;;6.20;5.60;;;;;;;21.94;100.00;99136.83;106219;1253;60460;-72
2023/06/11 07:58:49;;;;;;;6.90;6.30;;;;;;;21.87;100.00;99136.30;106080;1250;64039;-73
2023/06/11 08:01:16;;;;;;;6.30;5.80;;;;;;;21.86;100.00;99132.14;106052;1249;60460;-73
2023/06/11 08:03:43;;;;;;;5.80;5.10;;;;;;;21.92;100.00;99137.91;106070;1253;60406;-74
2023/06/11 08:06:09;;;;;;;5.60;5.10;;;;;;;22.15;100.00;99135.98;106048;1250;66033;-71
2023/06/11 08:08:36;;;;;;;6.90;6.30;;;;;;;22.39;100.00;99139.95;106036;1253;60770;-75
2023/06/11 08:11:03;;;;;;;6.40;5.90;;;;;;;22.42;100.00;99142.31;106085;1251;64054;-75
2023/06/11 08:13:30;;;;;;;7.30;6.70;;;;;;;22.54;100.00;99138.42;106068;1256;60425;-74
2023/06/11 08:15:57;;;;;;;6.30;5.70;;;;;;;22.68;100.00;99133.10;106060;1251;60525;-74
2023/06/11 08:18:24;;;;;;;6.90;5.20;;;;;;;22.53;100.00;99135.24;106082;1254;65297;-74
2023/06/11 08:20:50;;;;;;;5.80;5.20;;;;;;;22.33;100.00;99140.94;106090;1250;60404;-76
2023/06/11 08:23:17;;;;;;;5.80;5.30;;;;;;;22.17;100.00;99141.27;106099;1250;64605;-73
2023/06/11 08:25:44;;;;;;;6.50;6.00;;;;;;;22.13;100.00;99139.24;105866;1258;61161;-74
2023/06/11 08:28:10;;;;;;;6.60;5.90;;;;;;;22.13;100.00;99135.37;106133;1255;60408;-73
2023/06/11 08:30:37;;;;;;;7.00;6.40;;;;;;;22.07;100.00;99138.23;106095;1255;65392;-74
2023/06/11 08:33:03;;;;;;;6.80;6.20;;;;;;;21.99;100.00;99138.60;106064;1254;60890;-74
2023/06/11 08:35:30;;;;;;;9.60;6.90;;;;;;;22.00;100.00;99142.56;106082;1253;60534;-72
2023/06/11 08:37:57;;;;;;;6.80;6.10;;;;;;;21.90;100.00;99144.27;106085;1250;60531;-73
2023/06/11 08:40:23;;;;;;;7.10;6.10;;;;;;;21.82;100.00;99139.64;106074;1253;60428;-73
2023/06/11 08:42:50;;;;;;;6.40;5.80;;;;;;;21.78;100.00;99141.51;105781;1250;66900;-74
2023/06/11 08:45:17;;;;;;;6.50;6.00;;;;;;;21.75;100.00;99141.47;106030;1252;60335;-72
2023/06/11 08:47:52;;;;;;;6.40;5.90;;;;;;;21.68;100.00;99144.05;106015;1253;63751;-71
2023/06/11 08:50:21;;;;;;;6.10;5.50;;;;;;;21.69;100.00;99147.23;105885;1250;60555;-72
2023/06/11 08:52:51;;;;;;;6.60;6.00;;;;;;;21.77;100.00;99142.94;106160;1253;60297;-73
2023/06/11 08:55:18;;;;;;;6.10;5.50;;;;;;;21.91;100.00;99142.95;106078;1251;64116;-73
2023/06/11 08:57:44;;;;;;;6.80;5.40;;;;;;;22.20;100.00;99142.56;105993;1251;60303;-74
2023/06/11 09:00:12;;;;;;;5.60;5.20;;;;;;;22.59;100.00;99137.42;105978;1256;63315;-73
2023/06/11 09:02:39;;;;;;;6.70;6.10;;;;;;;23.04;100.00;99135.52;105813;1259;60612;-73
2023/06/11 09:05:06;;;;;;;5.80;5.20;;;;;;;23.38;100.00;99129.88;106041;1250;60417;-73
2023/06/11 09:07:33;;;;;;;5.20;4.70;;;;;;;23.48;100.00;99131.46;106035;1251;65122;-74
2023/06/11 09:10:03;;;;;;;5.80;5.30;;;;;;;23.49;100.00;99131.11;106046;1255;60536;-73
2023/06/11 09:12:30;;;;;;;5.70;5.20;;;;;;;23.41;100.00;99135.67;105947;1251;64650;-73
2023/06/11 09:14:57;;;;;;;6.30;5.70;;;;;;;23.23;100.00;99134.96;106019;1250;60754;-72
2023/06/11 09:17:26;;;;;;;6.10;5.40;;;;;;;23.27;100.00;99137.68;105872;1250;60542;-73
2023/06/11 09:19:54;;;;;;;6.90;5.80;;;;;;;23.35;100.00;99131.02;106193;1250;64035;-72
2023/06/11 09:22:27;;;;;;;5.50;5.00;;;;;;;23.41;100.00;99128.77;106049;1250;60620;-73
2023/06/11 09:24:54;;;;;;;5.30;4.90;;;;;;;23.61;100.00;99131.58;106119;1256;64644;-74
2023/06/11 09:27:22;;;;;;;5.30;4.90;;;;;;;23.68;100.00;99130.20;105823;1259;60691;-74
2023/06/11 09:29:48;;;;;;;6.00;4.80;;;;;;;23.59;100.00;99133.35;106086;1251;60356;-73
2023/06/11 09:32:15;;;;;;;5.00;4.60;;;;;;;23.34;100.00;99134.58;106027;1251;65648;-72
2023/06/11 09:34:44;;;;;;;5.00;4.40;;;;;;;23.22;100.00;99131.27;106066;1254;60824;-75
2023/06/11 09:37:14;;;;;;;5.10;4.60;;;;;;;23.18;100.00;99131.89;106185;1250;64864;-73
2023/06/11 09:39:42;;;;;;;5.20;4.70;;;;;;;23.30;100.00;99125.60;105829;1252;60493;-74
2023/06/11 09:42:23;;;;;;;6.30;5.10;;;;;;;23.60;100.00;99123.15;106059;1250;60711;-75
2023/06/11 09:44:50;;;;;;;6.20;4.60;;;;;;;23.97;100.00;99123.56;106095;1251;65183;-73
2023/06/11 09:47:18;;;;;;;5.30;4.90;;;;;;;24.42;100.00;99118.67;106020;1255;60511;-73
2023/06/11 09:49:45;;;;;;;5.00;4.50;;;;;;;24.84;100.00;99118.45;105978;1250;64098;-75
2023/06/11 09:52:13;;;;;;;5.70;5.00;;;;;;;25.25;100.00;99122.03;105965;1253;60408;-73
2023/06/11 09:54:42;;;;;;;5.40;5.00;;;;;;;25.64;100.00;99128.13;106042;1253;60352;-75
2023/06/11 09:57:09;;;;;;;;;;;;;;;25.51;100.00;99132.88;106485;1253;65645;-73
2023/06/11 09:59:37;;;;;;;5.60;5.00;;;;;;;25.21;100.00;99131.20;106084;1251;61942;-72
2023/06/11 10:02:05;;;;;;;6.00;5.50;;;;;;;25.09;100.00;99130.70;105990;1253;63761;-74
2023/06/11 10:04:31;;;;;;;5.50;5.00;;;;;;;25.17;100.00;99130.64;106027;1250;60442;-74
2023/06/11 10:07:00;;;;;;;4.80;4.40;;;;;;;25.23;99.49;99131.67;105855;1251;60538;-73
2023/06/11 10:09:29;;;;;;;5.20;4.70;;;;;;;25.26;88.51;99131.46;106431;1250;64062;-74
2023/06/11 10:11:56;;;;;;;5.00;4.50;;;;;;;25.34;78.50;99130.07;106066;1251;61176;-73
2023/06/11 10:14:23;;;;;;;5.00;4.50;;;;;;;25.35;71.38;99131.09;106059;1251;64872;-74
2023/06/11 10:16:51;;;;;;;4.50;4.20;;;;;;;25.44;70.47;99125.63;106059;1251;60434;-73
2023/06/11 10:19:18;;;;;;;7.40;5.50;;;;;;;25.76;69.02;99128.06;106086;1255;60339;-74
2023/06/11 10:21:50;;;;;;;6.80;4.40;;;;;;;25.96;66.89;99126.05;106103;1253;64971;-73
2023/06/11 10:24:27;;;;;;;4.80;4.40;;;;;;;26.03;66.43;99128.21;106099;1256;60460;-73
2023/06/11 10:27:12;;;;;;;4.90;4.30;;;;;;;26.02;65.93;99128.95;106031;1251;64133;-73
2023/06/11 10:29:41;;;;;;;5.60;4.30;;;;;;;26.04;65.82;99129.23;106142;1250;60411;-74
2023/06/11 10:32:19;;;;;;;7.90;4.20;;;;;;;26.15;64.43;99127.45;106101;1250;60544;-73
2023/06/11 10:34:55;;;;;;;4.40;3.90;;;;;;;26.22;64.47;99122.08;106130;1251;65737;-73
2023/06/11 10:37:29;;;;;;;5.30;4.70;;;;;;;26.46;64.33;99120.67;106149;1253;60631;-73
2023/06/11 10:39:55;;;;;;;12.50;4.90;;;;;;;26.68;64.05;99121.02;106024;1250;64652;-74
2023/06/11 10:42:33;;;;;;;5.40;4.20;;;;;;;26.86;62.44;99115.19;106090;1253;60344;-73
2023/06/11 10:45:00;;;;;;;6.20;4.70;;;;;;;26.81;59.84;99113.11;106083;1251;60440;-74
2023/06/11 10:47:28;;;;;;;4.60;4.10;;;;;;;26.78;58.97;99124.34;106034;1250;66479;-73
2023/06/11 10:50:07;;;;;;;7.30;4.60;;;;;;;26.66;57.98;99127.27;105800;1251;62210;-73
2023/06/11 10:52:55;;;;;;;5.50;4.80;;;;;;;26.58;58.81;99121.43;106017;1254;65862;-72
2023/06/11 10:55:26;;;;;;;4.40;4.00;;;;;;;26.74;57.92;99117.88;106079;1256;60337;-73
2023/06/11 10:57:53;;;;;;;5.60;3.70;;;;;;;26.75;58.42;99112.46;106003;1256;60425;-74
2023/06/11 11:00:21;;;;;;;4.30;3.80;;;;;;;26.90;58.04;99104.01;105920;1256;65385;-73
2023/06/11 11:02:49;;;;;;;4.30;4.00;;;;;;;26.95;56.69;99105.23;105937;1255;60364;-73
2023/06/11 11:05:16;;;;;;;6.50;4.00;;;;;;;26.82;56.07;99100.41;105971;1254;64820;-75
2023/06/11 11:07:45;;;;;;;4.40;4.10;;;;;;;26.84;56.53;99099.92;105941;1253;60425;-73
2023/06/11 11:10:18;;;;;;;5.20;4.30;;;;;;;26.81;55.00;99096.36;105953;1253;59326;-75
2023/06/11 11:12:46;;;;;;;4.20;3.80;;;;;;;26.59;53.95;99095.81;105955;1256;65998;-73
2023/06/11 11:15:14;;;;;;;4.20;3.80;;;;;;;26.41;54.29;99098.18;105976;1256;61659;-72
2023/06/11 11:17:42;;;;;;;4.80;4.30;;;;;;;26.48;54.68;99096.80;109533;1251;64223;-73
2023/06/11 11:20:11;;;;;;;4.90;3.90;;;;;;;26.53;54.25;99095.34;109543;1254;58178;-73
2023/06/11 11:22:38;;;;;;;4.10;3.60;;;;;;;26.56;54.38;99092.73;109561;1252;58291;-73
2023/06/11 11:25:06;;;;;;;4.40;4.10;;;;;;;26.41;54.08;99092.77;109552;1251;66458;-73
2023/06/11 11:27:34;;;;;;;4.60;4.20;;;;;;;26.22;54.41;99096.02;109137;1253;60195;-73